sensor_id;sensor_type;location;lat;lon;timestamp;P1;durP1;ratioP1;P2;durP2;ratioP2
52530;SDS011;38441;52.894;6.040;2022-11-20T00:00:38;16.35;;;10.52;;
52530;SDS011;38441;52.894;6.040;2022-11-20T00:03:04;20.33;;;10.02;;
52530;SDS011;38441;52.894;6.040;2022-11-20T00:05:32;15.93;;;9.55;;
52530;SDS011;38441;52.894;6.040;2022-11-20T00:07:58;16.35;;;9.52;;
52530;SDS011;38441;52.894;6.040;2022-11-20T00:10:23;16.52;;;9.70;;
52530;SDS011;38441;52.894;6.040;2022-11-20T00:12:49;16.27;;;9.60;;
52530;SDS011;38441;52.894;6.040;2022-11-20T00:15:15;16.63;;;9.38;;
52530;SDS011;38441;52.894;6.040;2022-11-20T00:17:41;16.35;;;8.95;;
52530;SDS011;38441;52.894;6.040;2022-11-20T00:20:07;15.52;;;8.85;;
52530;SDS011;38441;52.894;6.040;2022-11-20T00:22:33;16.33;;;9.70;;
52530;SDS011;38441;52.894;6.040;2022-11-20T00:24:59;16.90;;;10.05;;
52530;SDS011;38441;52.894;6.040;2022-11-20T00:27:24;17.70;;;10.25;;
52530;SDS011;38441;52.894;6.040;2022-11-20T00:29:50;16.45;;;10.07;;
52530;SDS011;38441;52.894;6.040;2022-11-20T00:32:16;19.92;;;11.05;;
52530;SDS011;38441;52.894;6.040;2022-11-20T00:34:42;19.70;;;10.50;;
52530;SDS011;38441;52.894;6.040;2022-11-20T00:37:08;17.08;;;10.20;;
52530;SDS011;38441;52.894;6.040;2022-11-20T00:39:33;16.27;;;10.27;;
52530;SDS011;38441;52.894;6.040;2022-11-20T00:41:59;15.90;;;9.68;;
52530;SDS011;38441;52.894;6.040;2022-11-20T00:44:24;17.58;;;10.63;;
52530;SDS011;38441;52.894;6.040;2022-11-20T00:46:50;15.43;;;9.68;;
52530;SDS011;38441;52.894;6.040;2022-11-20T00:49:16;15.27;;;9.50;;
52530;SDS011;38441;52.894;6.040;2022-11-20T00:51:41;14.77;;;9.50;;
52530;SDS011;38441;52.894;6.040;2022-11-20T00:54:07;15.93;;;9.73;;
52530;SDS011;38441;52.894;6.040;2022-11-20T00:56:33;13.45;;;9.15;;
52530;SDS011;38441;52.894;6.040;2022-11-20T00:58:59;13.75;;;8.93;;
52530;SDS011;38441;52.894;6.040;2022-11-20T01:01:26;16.70;;;9.57;;
52530;SDS011;38441;52.894;6.040;2022-11-20T01:03:55;14.70;;;9.00;;
52530;SDS011;38441;52.894;6.040;2022-11-20T01:06:23;13.95;;;8.75;;
52530;SDS011;38441;52.894;6.040;2022-11-20T01:08:50;14.43;;;8.57;;
52530;SDS011;38441;52.894;6.040;2022-11-20T01:11:22;17.63;;;9.32;;
52530;SDS011;38441;52.894;6.040;2022-11-20T01:13:50;14.13;;;8.80;;
52530;SDS011;38441;52.894;6.040;2022-11-20T01:16:21;14.15;;;8.48;;
52530;SDS011;38441;52.894;6.040;2022-11-20T01:18:53;17.42;;;10.05;;
52530;SDS011;38441;52.894;6.040;2022-11-20T01:21:21;25.00;;;13.57;;
52530;SDS011;38441;52.894;6.040;2022-11-20T01:23:50;21.40;;;12.48;;
52530;SDS011;38441;52.894;6.040;2022-11-20T01:26:18;22.15;;;11.73;;
52530;SDS011;38441;52.894;6.040;2022-11-20T01:28:46;22.63;;;12.93;;
52530;SDS011;38441;52.894;6.040;2022-11-20T01:31:16;19.33;;;10.73;;
52530;SDS011;38441;52.894;6.040;2022-11-20T01:33:43;19.10;;;9.60;;
52530;SDS011;38441;52.894;6.040;2022-11-20T01:36:09;19.02;;;10.45;;
52530;SDS011;38441;52.894;6.040;2022-11-20T01:38:36;23.65;;;11.75;;
52530;SDS011;38441;52.894;6.040;2022-11-20T01:41:02;19.30;;;11.95;;
52530;SDS011;38441;52.894;6.040;2022-11-20T01:43:28;18.08;;;10.82;;
52530;SDS011;38441;52.894;6.040;2022-11-20T01:53:54;17.23;;;9.35;;
52530;SDS011;38441;52.894;6.040;2022-11-20T01:56:23;16.77;;;9.55;;
52530;SDS011;38441;52.894;6.040;2022-11-20T01:58:51;15.10;;;8.90;;
52530;SDS011;38441;52.894;6.040;2022-11-20T02:01:21;15.82;;;9.45;;
52530;SDS011;38441;52.894;6.040;2022-11-20T02:03:48;16.65;;;9.90;;
52530;SDS011;38441;52.894;6.040;2022-11-20T02:08:51;17.08;;;9.45;;
52530;SDS011;38441;52.894;6.040;2022-11-20T02:11:17;14.10;;;8.82;;
52530;SDS011;38441;52.894;6.040;2022-11-20T02:13:44;17.15;;;9.63;;
52530;SDS011;38441;52.894;6.040;2022-11-20T02:18:41;13.70;;;9.23;;
52530;SDS011;38441;52.894;6.040;2022-11-20T02:21:13;14.23;;;8.98;;
52530;SDS011;38441;52.894;6.040;2022-11-20T02:26:24;14.25;;;8.30;;
52530;SDS011;38441;52.894;6.040;2022-11-20T02:28:52;14.20;;;9.15;;
52530;SDS011;38441;52.894;6.040;2022-11-20T02:31:19;17.42;;;9.27;;
52530;SDS011;38441;52.894;6.040;2022-11-20T02:33:44;17.25;;;9.45;;
52530;SDS011;38441;52.894;6.040;2022-11-20T02:36:11;14.98;;;8.80;;
52530;SDS011;38441;52.894;6.040;2022-11-20T02:38:37;15.23;;;9.32;;
52530;SDS011;38441;52.894;6.040;2022-11-20T02:41:03;13.60;;;8.32;;
52530;SDS011;38441;52.894;6.040;2022-11-20T02:43:29;14.55;;;8.40;;
52530;SDS011;38441;52.894;6.040;2022-11-20T02:45:54;15.00;;;9.20;;
52530;SDS011;38441;52.894;6.040;2022-11-20T02:48:20;16.17;;;9.45;;
52530;SDS011;38441;52.894;6.040;2022-11-20T02:50:46;14.80;;;8.52;;
52530;SDS011;38441;52.894;6.040;2022-11-20T02:53:12;14.93;;;8.57;;
52530;SDS011;38441;52.894;6.040;2022-11-20T02:55:38;18.90;;;10.88;;
52530;SDS011;38441;52.894;6.040;2022-11-20T02:58:04;19.80;;;10.27;;
52530;SDS011;38441;52.894;6.040;2022-11-20T03:00:30;17.63;;;9.60;;
52530;SDS011;38441;52.894;6.040;2022-11-20T03:02:55;16.75;;;10.02;;
52530;SDS011;38441;52.894;6.040;2022-11-20T03:05:21;15.75;;;8.90;;
52530;SDS011;38441;52.894;6.040;2022-11-20T03:07:47;17.05;;;9.80;;
52530;SDS011;38441;52.894;6.040;2022-11-20T03:10:13;17.02;;;9.68;;
52530;SDS011;38441;52.894;6.040;2022-11-20T03:12:39;15.23;;;9.80;;
52530;SDS011;38441;52.894;6.040;2022-11-20T03:15:04;17.90;;;9.73;;
52530;SDS011;38441;52.894;6.040;2022-11-20T03:17:30;14.43;;;9.18;;
52530;SDS011;38441;52.894;6.040;2022-11-20T03:19:56;17.98;;;10.38;;
52530;SDS011;38441;52.894;6.040;2022-11-20T03:22:21;14.23;;;9.50;;
52530;SDS011;38441;52.894;6.040;2022-11-20T03:24:47;15.07;;;9.32;;
52530;SDS011;38441;52.894;6.040;2022-11-20T03:27:13;14.23;;;9.30;;
52530;SDS011;38441;52.894;6.040;2022-11-20T03:29:39;16.30;;;9.75;;
52530;SDS011;38441;52.894;6.040;2022-11-20T03:32:05;15.65;;;9.80;;
52530;SDS011;38441;52.894;6.040;2022-11-20T03:34:31;20.10;;;11.80;;
52530;SDS011;38441;52.894;6.040;2022-11-20T03:36:58;18.20;;;10.13;;
52530;SDS011;38441;52.894;6.040;2022-11-20T03:39:23;18.10;;;10.40;;
52530;SDS011;38441;52.894;6.040;2022-11-20T03:41:49;17.40;;;10.65;;
52530;SDS011;38441;52.894;6.040;2022-11-20T03:44:15;19.80;;;10.55;;
52530;SDS011;38441;52.894;6.040;2022-11-20T03:46:41;16.55;;;10.40;;
52530;SDS011;38441;52.894;6.040;2022-11-20T03:49:07;17.80;;;10.20;;
52530;SDS011;38441;52.894;6.040;2022-11-20T03:51:34;16.33;;;10.48;;
52530;SDS011;38441;52.894;6.040;2022-11-20T03:54:02;16.30;;;9.60;;
52530;SDS011;38441;52.894;6.040;2022-11-20T03:56:30;14.77;;;9.30;;
52530;SDS011;38441;52.894;6.040;2022-11-20T03:58:57;18.15;;;9.70;;
52530;SDS011;38441;52.894;6.040;2022-11-20T04:01:30;18.73;;;10.85;;
52530;SDS011;38441;52.894;6.040;2022-11-20T04:03:58;20.40;;;10.57;;
52530;SDS011;38441;52.894;6.040;2022-11-20T04:06:24;16.65;;;10.07;;
52530;SDS011;38441;52.894;6.040;2022-11-20T04:08:54;16.50;;;10.57;;
52530;SDS011;38441;52.894;6.040;2022-11-20T04:11:23;17.70;;;9.70;;
52530;SDS011;38441;52.894;6.040;2022-11-20T04:13:54;19.27;;;10.70;;
52530;SDS011;38441;52.894;6.040;2022-11-20T04:16:22;16.17;;;9.52;;
52530;SDS011;38441;52.894;6.040;2022-11-20T04:18:52;17.20;;;9.95;;
52530;SDS011;38441;52.894;6.040;2022-11-20T04:21:19;15.95;;;9.23;;
52530;SDS011;38441;52.894;6.040;2022-11-20T04:23:44;16.15;;;9.57;;
52530;SDS011;38441;52.894;6.040;2022-11-20T04:26:11;15.95;;;9.00;;
52530;SDS011;38441;52.894;6.040;2022-11-20T04:28:37;14.82;;;8.90;;
52530;SDS011;38441;52.894;6.040;2022-11-20T04:31:04;14.60;;;8.30;;
52530;SDS011;38441;52.894;6.040;2022-11-20T04:33:35;13.07;;;9.30;;
52530;SDS011;38441;52.894;6.040;2022-11-20T04:36:05;14.60;;;8.68;;
52530;SDS011;38441;52.894;6.040;2022-11-20T04:38:42;14.68;;;8.93;;
52530;SDS011;38441;52.894;6.040;2022-11-20T04:41:09;15.43;;;9.50;;
52530;SDS011;38441;52.894;6.040;2022-11-20T04:46:05;11.93;;;7.82;;
52530;SDS011;38441;52.894;6.040;2022-11-20T04:48:30;14.60;;;8.52;;
52530;SDS011;38441;52.894;6.040;2022-11-20T04:50:57;12.95;;;7.47;;
52530;SDS011;38441;52.894;6.040;2022-11-20T04:53:23;13.80;;;8.02;;
52530;SDS011;38441;52.894;6.040;2022-11-20T04:55:49;14.00;;;8.80;;
52530;SDS011;38441;52.894;6.040;2022-11-20T04:58:14;16.05;;;7.93;;
52530;SDS011;38441;52.894;6.040;2022-11-20T05:00:40;14.02;;;7.32;;
52530;SDS011;38441;52.894;6.040;2022-11-20T05:03:06;14.15;;;8.27;;
52530;SDS011;38441;52.894;6.040;2022-11-20T05:05:33;13.77;;;8.52;;
52530;SDS011;38441;52.894;6.040;2022-11-20T05:07:59;13.48;;;7.80;;
52530;SDS011;38441;52.894;6.040;2022-11-20T05:10:25;12.90;;;8.00;;
52530;SDS011;38441;52.894;6.040;2022-11-20T05:12:51;14.10;;;8.35;;
52530;SDS011;38441;52.894;6.040;2022-11-20T05:15:17;14.15;;;8.73;;
52530;SDS011;38441;52.894;6.040;2022-11-20T05:17:49;13.60;;;8.13;;
52530;SDS011;38441;52.894;6.040;2022-11-20T05:20:15;13.65;;;7.82;;
52530;SDS011;38441;52.894;6.040;2022-11-20T05:22:41;13.50;;;8.80;;
52530;SDS011;38441;52.894;6.040;2022-11-20T05:25:07;15.40;;;8.32;;
52530;SDS011;38441;52.894;6.040;2022-11-20T05:27:33;15.10;;;8.55;;
52530;SDS011;38441;52.894;6.040;2022-11-20T05:29:59;13.75;;;8.57;;
52530;SDS011;38441;52.894;6.040;2022-11-20T05:32:25;12.43;;;8.15;;
52530;SDS011;38441;52.894;6.040;2022-11-20T05:34:51;13.20;;;8.45;;
52530;SDS011;38441;52.894;6.040;2022-11-20T05:37:17;12.52;;;7.55;;
52530;SDS011;38441;52.894;6.040;2022-11-20T05:39:43;13.70;;;8.38;;
52530;SDS011;38441;52.894;6.040;2022-11-20T05:42:09;12.93;;;7.85;;
52530;SDS011;38441;52.894;6.040;2022-11-20T05:44:54;13.95;;;8.07;;
52530;SDS011;38441;52.894;6.040;2022-11-20T05:47:20;14.73;;;8.15;;
52530;SDS011;38441;52.894;6.040;2022-11-20T05:49:45;14.23;;;7.78;;
52530;SDS011;38441;52.894;6.040;2022-11-20T05:52:11;11.93;;;7.50;;
52530;SDS011;38441;52.894;6.040;2022-11-20T05:54:37;12.93;;;7.88;;
52530;SDS011;38441;52.894;6.040;2022-11-20T05:57:03;11.60;;;7.65;;
52530;SDS011;38441;52.894;6.040;2022-11-20T05:59:29;13.05;;;8.27;;
52530;SDS011;38441;52.894;6.040;2022-11-20T06:01:55;13.57;;;8.13;;
52530;SDS011;38441;52.894;6.040;2022-11-20T06:04:21;15.88;;;9.15;;
52530;SDS011;38441;52.894;6.040;2022-11-20T06:06:47;12.50;;;8.20;;
52530;SDS011;38441;52.894;6.040;2022-11-20T06:09:12;12.70;;;7.88;;
52530;SDS011;38441;52.894;6.040;2022-11-20T06:11:38;13.25;;;8.18;;
52530;SDS011;38441;52.894;6.040;2022-11-20T06:14:04;13.65;;;8.25;;
52530;SDS011;38441;52.894;6.040;2022-11-20T06:16:29;13.98;;;8.48;;
52530;SDS011;38441;52.894;6.040;2022-11-20T06:18:55;14.75;;;8.15;;
52530;SDS011;38441;52.894;6.040;2022-11-20T06:21:22;15.90;;;8.68;;
52530;SDS011;38441;52.894;6.040;2022-11-20T06:23:48;15.07;;;8.38;;
52530;SDS011;38441;52.894;6.040;2022-11-20T06:26:15;15.93;;;8.82;;
52530;SDS011;38441;52.894;6.040;2022-11-20T06:28:42;15.07;;;8.32;;
52530;SDS011;38441;52.894;6.040;2022-11-20T06:31:10;16.00;;;8.85;;
52530;SDS011;38441;52.894;6.040;2022-11-20T06:33:37;14.10;;;8.50;;
52530;SDS011;38441;52.894;6.040;2022-11-20T06:36:02;13.75;;;8.18;;
52530;SDS011;38441;52.894;6.040;2022-11-20T06:38:28;13.65;;;8.68;;
52530;SDS011;38441;52.894;6.040;2022-11-20T06:40:55;15.65;;;8.40;;
52530;SDS011;38441;52.894;6.040;2022-11-20T06:43:21;13.07;;;8.35;;
52530;SDS011;38441;52.894;6.040;2022-11-20T06:45:54;14.88;;;7.82;;
52530;SDS011;38441;52.894;6.040;2022-11-20T06:48:21;14.05;;;8.43;;
52530;SDS011;38441;52.894;6.040;2022-11-20T06:50:48;12.65;;;8.45;;
52530;SDS011;38441;52.894;6.040;2022-11-20T06:53:14;12.82;;;8.18;;
52530;SDS011;38441;52.894;6.040;2022-11-20T06:55:43;15.38;;;8.52;;
52530;SDS011;38441;52.894;6.040;2022-11-20T06:58:10;13.85;;;8.43;;
52530;SDS011;38441;52.894;6.040;2022-11-20T07:00:36;15.00;;;8.65;;
52530;SDS011;38441;52.894;6.040;2022-11-20T07:03:05;20.60;;;10.25;;
52530;SDS011;38441;52.894;6.040;2022-11-20T07:05:31;16.92;;;9.18;;
52530;SDS011;38441;52.894;6.040;2022-11-20T07:07:58;16.23;;;9.23;;
52530;SDS011;38441;52.894;6.040;2022-11-20T07:10:24;13.85;;;8.15;;
52530;SDS011;38441;52.894;6.040;2022-11-20T07:12:50;13.50;;;8.63;;
52530;SDS011;38441;52.894;6.040;2022-11-20T07:15:19;14.82;;;8.77;;
52530;SDS011;38441;52.894;6.040;2022-11-20T07:17:46;14.90;;;9.07;;
52530;SDS011;38441;52.894;6.040;2022-11-20T07:20:12;16.65;;;8.40;;
52530;SDS011;38441;52.894;6.040;2022-11-20T07:22:38;15.30;;;9.68;;
52530;SDS011;38441;52.894;6.040;2022-11-20T07:25:03;14.32;;;8.77;;
52530;SDS011;38441;52.894;6.040;2022-11-20T07:27:29;14.55;;;9.23;;
52530;SDS011;38441;52.894;6.040;2022-11-20T07:29:56;17.02;;;8.70;;
52530;SDS011;38441;52.894;6.040;2022-11-20T07:32:21;15.63;;;8.43;;
52530;SDS011;38441;52.894;6.040;2022-11-20T07:34:47;16.65;;;8.35;;
52530;SDS011;38441;52.894;6.040;2022-11-20T07:37:13;16.85;;;9.30;;
52530;SDS011;38441;52.894;6.040;2022-11-20T07:39:39;15.32;;;9.85;;
52530;SDS011;38441;52.894;6.040;2022-11-20T07:42:06;16.85;;;10.23;;
52530;SDS011;38441;52.894;6.040;2022-11-20T07:44:32;21.20;;;9.38;;
52530;SDS011;38441;52.894;6.040;2022-11-20T07:46:58;13.55;;;8.77;;
52530;SDS011;38441;52.894;6.040;2022-11-20T07:49:24;12.50;;;7.75;;
52530;SDS011;38441;52.894;6.040;2022-11-20T07:51:50;16.55;;;8.30;;
52530;SDS011;38441;52.894;6.040;2022-11-20T07:54:18;13.45;;;8.07;;
52530;SDS011;38441;52.894;6.040;2022-11-20T07:56:44;13.52;;;8.23;;
52530;SDS011;38441;52.894;6.040;2022-11-20T07:59:10;15.02;;;7.80;;
52530;SDS011;38441;52.894;6.040;2022-11-20T08:01:37;13.02;;;8.18;;
52530;SDS011;38441;52.894;6.040;2022-11-20T08:04:05;14.95;;;8.80;;
52530;SDS011;38441;52.894;6.040;2022-11-20T08:06:31;13.60;;;8.15;;
52530;SDS011;38441;52.894;6.040;2022-11-20T08:08:57;13.20;;;8.68;;
52530;SDS011;38441;52.894;6.040;2022-11-20T08:11:23;15.98;;;8.43;;
52530;SDS011;38441;52.894;6.040;2022-11-20T08:14:07;15.10;;;8.88;;
52530;SDS011;38441;52.894;6.040;2022-11-20T08:16:46;18.17;;;8.88;;
52530;SDS011;38441;52.894;6.040;2022-11-20T08:19:12;14.52;;;8.25;;
52530;SDS011;38441;52.894;6.040;2022-11-20T08:21:39;14.02;;;8.57;;
52530;SDS011;38441;52.894;6.040;2022-11-20T08:24:05;13.98;;;8.40;;
52530;SDS011;38441;52.894;6.040;2022-11-20T08:26:31;13.05;;;8.45;;
52530;SDS011;38441;52.894;6.040;2022-11-20T08:28:57;14.27;;;8.93;;
52530;SDS011;38441;52.894;6.040;2022-11-20T08:31:24;14.50;;;8.85;;
52530;SDS011;38441;52.894;6.040;2022-11-20T08:33:51;14.43;;;8.90;;
52530;SDS011;38441;52.894;6.040;2022-11-20T08:36:18;14.93;;;9.50;;
52530;SDS011;38441;52.894;6.040;2022-11-20T08:38:51;17.35;;;9.23;;
52530;SDS011;38441;52.894;6.040;2022-11-20T08:41:18;15.57;;;9.60;;
52530;SDS011;38441;52.894;6.040;2022-11-20T08:43:50;14.52;;;9.40;;
52530;SDS011;38441;52.894;6.040;2022-11-20T08:46:18;16.02;;;10.02;;
52530;SDS011;38441;52.894;6.040;2022-11-20T08:48:44;18.48;;;10.18;;
52530;SDS011;38441;52.894;6.040;2022-11-20T08:51:10;15.57;;;10.13;;
52530;SDS011;38441;52.894;6.040;2022-11-20T08:53:37;15.80;;;9.90;;
52530;SDS011;38441;52.894;6.040;2022-11-20T08:56:03;17.88;;;9.98;;
52530;SDS011;38441;52.894;6.040;2022-11-20T08:58:29;16.17;;;10.00;;
52530;SDS011;38441;52.894;6.040;2022-11-20T09:00:55;13.75;;;8.75;;
52530;SDS011;38441;52.894;6.040;2022-11-20T09:03:21;15.10;;;9.55;;
52530;SDS011;38441;52.894;6.040;2022-11-20T09:05:50;15.48;;;9.73;;
52530;SDS011;38441;52.894;6.040;2022-11-20T09:08:18;15.85;;;9.95;;
52530;SDS011;38441;52.894;6.040;2022-11-20T09:10:44;17.48;;;9.95;;
52530;SDS011;38441;52.894;6.040;2022-11-20T09:13:10;16.52;;;9.00;;
52530;SDS011;38441;52.894;6.040;2022-11-20T09:15:36;18.75;;;9.43;;
52530;SDS011;38441;52.894;6.040;2022-11-20T09:18:02;16.08;;;9.43;;
52530;SDS011;38441;52.894;6.040;2022-11-20T09:20:30;15.63;;;9.65;;
52530;SDS011;38441;52.894;6.040;2022-11-20T09:22:56;16.17;;;9.50;;
52530;SDS011;38441;52.894;6.040;2022-11-20T09:25:22;14.55;;;8.55;;
52530;SDS011;38441;52.894;6.040;2022-11-20T09:27:54;15.10;;;8.70;;
52530;SDS011;38441;52.894;6.040;2022-11-20T09:30:23;16.02;;;9.18;;
52530;SDS011;38441;52.894;6.040;2022-11-20T09:32:49;13.75;;;8.68;;
52530;SDS011;38441;52.894;6.040;2022-11-20T09:35:15;14.52;;;8.63;;
52530;SDS011;38441;52.894;6.040;2022-11-20T09:37:42;14.10;;;8.25;;
52530;SDS011;38441;52.894;6.040;2022-11-20T09:40:16;11.98;;;8.05;;
52530;SDS011;38441;52.894;6.040;2022-11-20T09:45:36;14.70;;;9.05;;
52530;SDS011;38441;52.894;6.040;2022-11-20T09:48:13;15.25;;;9.43;;
52530;SDS011;38441;52.894;6.040;2022-11-20T09:50:56;14.25;;;8.63;;
52530;SDS011;38441;52.894;6.040;2022-11-20T09:56:02;15.70;;;8.82;;
52530;SDS011;38441;52.894;6.040;2022-11-20T09:58:31;14.63;;;8.55;;
52530;SDS011;38441;52.894;6.040;2022-11-20T10:01:12;16.20;;;9.57;;
52530;SDS011;38441;52.894;6.040;2022-11-20T10:06:10;16.15;;;8.88;;
52530;SDS011;38441;52.894;6.040;2022-11-20T10:08:39;15.68;;;9.48;;
52530;SDS011;38441;52.894;6.040;2022-11-20T10:11:18;13.93;;;9.00;;
52530;SDS011;38441;52.894;6.040;2022-11-20T10:16:54;14.10;;;9.70;;
52530;SDS011;38441;52.894;6.040;2022-11-20T10:24:36;17.48;;;9.85;;
52530;SDS011;38441;52.894;6.040;2022-11-20T10:30:10;14.95;;;8.70;;
52530;SDS011;38441;52.894;6.040;2022-11-20T10:32:41;13.93;;;8.73;;
52530;SDS011;38441;52.894;6.040;2022-11-20T10:37:35;12.23;;;7.82;;
52530;SDS011;38441;52.894;6.040;2022-11-20T10:40:15;13.68;;;8.70;;
52530;SDS011;38441;52.894;6.040;2022-11-20T10:42:49;12.07;;;7.78;;
52530;SDS011;38441;52.894;6.040;2022-11-20T10:47:54;12.82;;;7.57;;
52530;SDS011;38441;52.894;6.040;2022-11-20T10:50:36;13.60;;;8.00;;
52530;SDS011;38441;52.894;6.040;2022-11-20T10:53:18;11.95;;;7.88;;
52530;SDS011;38441;52.894;6.040;2022-11-20T10:56:11;14.18;;;8.45;;
52530;SDS011;38441;52.894;6.040;2022-11-20T11:01:50;13.50;;;8.15;;
52530;SDS011;38441;52.894;6.040;2022-11-20T11:07:04;12.13;;;7.55;;
52530;SDS011;38441;52.894;6.040;2022-11-20T11:09:37;11.25;;;7.53;;
52530;SDS011;38441;52.894;6.040;2022-11-20T11:12:08;11.80;;;7.47;;
52530;SDS011;38441;52.894;6.040;2022-11-20T11:14:44;12.18;;;8.18;;
52530;SDS011;38441;52.894;6.040;2022-11-20T11:17:27;12.18;;;7.53;;
52530;SDS011;38441;52.894;6.040;2022-11-20T11:20:04;10.65;;;7.25;;
52530;SDS011;38441;52.894;6.040;2022-11-20T11:22:42;11.25;;;7.30;;
52530;SDS011;38441;52.894;6.040;2022-11-20T11:25:18;12.90;;;7.88;;
52530;SDS011;38441;52.894;6.040;2022-11-20T11:27:49;10.30;;;6.88;;
52530;SDS011;38441;52.894;6.040;2022-11-20T11:30:16;11.63;;;7.25;;
52530;SDS011;38441;52.894;6.040;2022-11-20T11:32:42;13.25;;;7.68;;
52530;SDS011;38441;52.894;6.040;2022-11-20T11:35:23;13.63;;;8.05;;
52530;SDS011;38441;52.894;6.040;2022-11-20T11:37:51;15.68;;;8.38;;
52530;SDS011;38441;52.894;6.040;2022-11-20T11:40:19;12.70;;;7.70;;
52530;SDS011;38441;52.894;6.040;2022-11-20T11:42:54;13.95;;;8.02;;
52530;SDS011;38441;52.894;6.040;2022-11-20T11:45:23;11.52;;;7.85;;
52530;SDS011;38441;52.894;6.040;2022-11-20T11:47:49;12.68;;;7.65;;
52530;SDS011;38441;52.894;6.040;2022-11-20T11:55:32;11.45;;;7.03;;
52530;SDS011;38441;52.894;6.040;2022-11-20T11:58:02;11.60;;;7.28;;
52530;SDS011;38441;52.894;6.040;2022-11-20T12:00:39;10.90;;;7.10;;
52530;SDS011;38441;52.894;6.040;2022-11-20T12:03:13;10.88;;;7.43;;
52530;SDS011;38441;52.894;6.040;2022-11-20T12:05:44;10.13;;;6.65;;
52530;SDS011;38441;52.894;6.040;2022-11-20T12:08:23;12.15;;;7.28;;
52530;SDS011;38441;52.894;6.040;2022-11-20T12:11:05;10.90;;;7.38;;
52530;SDS011;38441;52.894;6.040;2022-11-20T12:16:13;12.32;;;7.72;;
52530;SDS011;38441;52.894;6.040;2022-11-20T12:18:42;10.50;;;7.07;;
52530;SDS011;38441;52.894;6.040;2022-11-20T12:23:39;9.82;;;6.50;;
52530;SDS011;38441;52.894;6.040;2022-11-20T12:26:35;11.50;;;7.05;;
52530;SDS011;38441;52.894;6.040;2022-11-20T12:32:24;11.65;;;6.95;;
52530;SDS011;38441;52.894;6.040;2022-11-20T12:49:49;11.40;;;6.53;;
52530;SDS011;38441;52.894;6.040;2022-11-20T12:57:43;9.18;;;6.10;;
52530;SDS011;38441;52.894;6.040;2022-11-20T13:00:23;11.23;;;6.57;;
52530;SDS011;38441;52.894;6.040;2022-11-20T13:05:24;11.70;;;7.78;;
52530;SDS011;38441;52.894;6.040;2022-11-20T13:08:07;12.10;;;7.47;;
52530;SDS011;38441;52.894;6.040;2022-11-20T13:13:23;12.30;;;7.13;;
52530;SDS011;38441;52.894;6.040;2022-11-20T13:18:29;11.70;;;7.45;;
52530;SDS011;38441;52.894;6.040;2022-11-20T13:20:56;11.27;;;6.95;;
52530;SDS011;38441;52.894;6.040;2022-11-20T13:23:23;10.35;;;6.45;;
52530;SDS011;38441;52.894;6.040;2022-11-20T13:25:50;10.45;;;7.18;;
52530;SDS011;38441;52.894;6.040;2022-11-20T13:30:53;11.68;;;7.68;;
52530;SDS011;38441;52.894;6.040;2022-11-20T13:35:59;10.65;;;6.82;;
52530;SDS011;38441;52.894;6.040;2022-11-20T13:38:26;11.18;;;6.97;;
52530;SDS011;38441;52.894;6.040;2022-11-20T13:40:57;10.15;;;6.90;;
52530;SDS011;38441;52.894;6.040;2022-11-20T13:43:28;12.15;;;7.32;;
52530;SDS011;38441;52.894;6.040;2022-11-20T13:46:01;10.70;;;7.40;;
52530;SDS011;38441;52.894;6.040;2022-11-20T13:48:30;10.63;;;6.93;;
52530;SDS011;38441;52.894;6.040;2022-11-20T14:02:16;11.25;;;6.72;;
52530;SDS011;38441;52.894;6.040;2022-11-20T14:04:48;11.20;;;7.53;;
52530;SDS011;38441;52.894;6.040;2022-11-20T14:07:16;12.00;;;7.15;;
52530;SDS011;38441;52.894;6.040;2022-11-20T14:09:51;12.02;;;7.55;;
52530;SDS011;38441;52.894;6.040;2022-11-20T14:12:20;11.10;;;6.97;;
52530;SDS011;38441;52.894;6.040;2022-11-20T14:14:54;12.68;;;8.48;;
52530;SDS011;38441;52.894;6.040;2022-11-20T14:17:29;12.05;;;7.60;;
52530;SDS011;38441;52.894;6.040;2022-11-20T14:20:04;13.32;;;8.10;;
52530;SDS011;38441;52.894;6.040;2022-11-20T14:22:31;12.13;;;8.05;;
52530;SDS011;38441;52.894;6.040;2022-11-20T14:27:52;13.50;;;7.80;;
52530;SDS011;38441;52.894;6.040;2022-11-20T14:30:19;12.68;;;7.85;;
52530;SDS011;38441;52.894;6.040;2022-11-20T14:32:47;14.02;;;7.97;;
52530;SDS011;38441;52.894;6.040;2022-11-20T14:35:16;13.10;;;8.23;;
52530;SDS011;38441;52.894;6.040;2022-11-20T14:37:46;11.65;;;7.65;;
52530;SDS011;38441;52.894;6.040;2022-11-20T14:40:26;13.90;;;8.18;;
52530;SDS011;38441;52.894;6.040;2022-11-20T14:42:54;13.40;;;7.80;;
52530;SDS011;38441;52.894;6.040;2022-11-20T14:45:20;16.33;;;8.88;;
52530;SDS011;38441;52.894;6.040;2022-11-20T14:47:47;13.40;;;8.35;;
52530;SDS011;38441;52.894;6.040;2022-11-20T14:50:26;12.55;;;7.90;;
52530;SDS011;38441;52.894;6.040;2022-11-20T14:52:56;12.75;;;8.15;;
52530;SDS011;38441;52.894;6.040;2022-11-20T14:57:56;14.07;;;8.65;;
52530;SDS011;38441;52.894;6.040;2022-11-20T15:00:23;14.35;;;8.93;;
52530;SDS011;38441;52.894;6.040;2022-11-20T15:02:50;15.63;;;9.38;;
52530;SDS011;38441;52.894;6.040;2022-11-20T15:05:17;13.00;;;8.05;;
52530;SDS011;38441;52.894;6.040;2022-11-20T15:07:46;14.38;;;9.13;;
52530;SDS011;38441;52.894;6.040;2022-11-20T15:12:52;15.50;;;9.95;;
52530;SDS011;38441;52.894;6.040;2022-11-20T15:15:45;12.70;;;8.73;;
52530;SDS011;38441;52.894;6.040;2022-11-20T15:18:36;13.57;;;9.65;;
52530;SDS011;38441;52.894;6.040;2022-11-20T15:21:03;13.68;;;8.68;;
52530;SDS011;38441;52.894;6.040;2022-11-20T15:23:35;14.52;;;9.25;;
52530;SDS011;38441;52.894;6.040;2022-11-20T15:26:03;13.50;;;9.30;;
52530;SDS011;38441;52.894;6.040;2022-11-20T15:28:34;12.95;;;8.70;;
52530;SDS011;38441;52.894;6.040;2022-11-20T15:31:02;13.65;;;8.85;;
52530;SDS011;38441;52.894;6.040;2022-11-20T15:33:29;12.90;;;8.98;;
52530;SDS011;38441;52.894;6.040;2022-11-20T15:35:55;16.50;;;9.50;;
52530;SDS011;38441;52.894;6.040;2022-11-20T15:38:21;16.98;;;10.68;;
52530;SDS011;38441;52.894;6.040;2022-11-20T15:40:47;15.32;;;9.13;;
52530;SDS011;38441;52.894;6.040;2022-11-20T15:43:13;13.88;;;9.13;;
52530;SDS011;38441;52.894;6.040;2022-11-20T15:48:08;16.23;;;9.00;;
52530;SDS011;38441;52.894;6.040;2022-11-20T15:50:38;14.23;;;8.90;;
52530;SDS011;38441;52.894;6.040;2022-11-20T15:53:07;16.27;;;9.35;;
52530;SDS011;38441;52.894;6.040;2022-11-20T15:55:33;14.20;;;9.10;;
52530;SDS011;38441;52.894;6.040;2022-11-20T15:58:00;14.05;;;9.10;;
52530;SDS011;38441;52.894;6.040;2022-11-20T16:00:26;12.95;;;9.25;;
52530;SDS011;38441;52.894;6.040;2022-11-20T16:02:52;13.52;;;9.20;;
52530;SDS011;38441;52.894;6.040;2022-11-20T16:05:18;14.77;;;9.43;;
52530;SDS011;38441;52.894;6.040;2022-11-20T16:07:44;15.00;;;9.65;;
52530;SDS011;38441;52.894;6.040;2022-11-20T16:10:10;14.85;;;9.13;;
52530;SDS011;38441;52.894;6.040;2022-11-20T16:12:36;16.30;;;9.95;;
52530;SDS011;38441;52.894;6.040;2022-11-20T16:15:21;18.52;;;11.10;;
52530;SDS011;38441;52.894;6.040;2022-11-20T16:18:07;19.35;;;10.55;;
52530;SDS011;38441;52.894;6.040;2022-11-20T16:20:33;17.45;;;10.15;;
52530;SDS011;38441;52.894;6.040;2022-11-20T16:22:59;17.35;;;10.80;;
52530;SDS011;38441;52.894;6.040;2022-11-20T16:25:26;20.70;;;11.48;;
52530;SDS011;38441;52.894;6.040;2022-11-20T16:27:52;17.23;;;11.27;;
52530;SDS011;38441;52.894;6.040;2022-11-20T16:30:18;18.58;;;11.70;;
52530;SDS011;38441;52.894;6.040;2022-11-20T16:32:44;15.65;;;10.07;;
52530;SDS011;38441;52.894;6.040;2022-11-20T16:35:10;15.60;;;9.98;;
52530;SDS011;38441;52.894;6.040;2022-11-20T16:37:36;15.50;;;9.95;;